createdAt,value
2022-10-22T00:03:48.482Z,51.53
2022-10-22T00:08:52.579Z,51.56
2022-10-22T00:13:55.345Z,51.52
2022-10-22T00:18:58.057Z,52.01
2022-10-22T00:24:02.054Z,51.91
2022-10-22T00:29:04.719Z,52.08
2022-10-22T00:34:07.380Z,52.20
2022-10-22T00:39:12.950Z,52.28
2022-10-22T00:44:53.206Z,52.44
2022-10-22T00:49:55.880Z,52.49
2022-10-22T00:54:59.868Z,52.51
2022-10-22T01:00:03.396Z,52.72
2022-10-22T01:05:06.822Z,52.55
2022-10-22T01:10:15.387Z,52.96
2022-10-22T01:15:23.029Z,53.07
2022-10-22T01:21:02.058Z,53.08
2022-10-22T01:26:07.531Z,53.11
2022-10-22T01:31:11.562Z,53.09
2022-10-22T01:36:14.261Z,53.19
2022-10-22T01:41:16.876Z,53.05
2022-10-22T01:46:23.250Z,53.18
2022-10-22T01:51:31.580Z,53.32
2022-10-22T01:56:42.707Z,53.16
2022-10-22T02:01:49.952Z,53.72
2022-10-22T02:06:52.939Z,53.66
2022-10-22T02:11:55.699Z,53.63
2022-10-22T02:16:59.789Z,54.02
2022-10-22T02:22:02.455Z,53.61
2022-10-22T02:27:08.373Z,53.79
2022-10-22T02:32:13.180Z,53.87
2022-10-22T02:37:16.069Z,54.04
2022-10-22T02:42:18.768Z,54.18
2022-10-22T02:52:25.361Z,54.10
2022-10-22T02:57:28.232Z,54.39
2022-10-22T03:02:32.202Z,54.31
2022-10-22T03:07:34.974Z,54.33
2022-10-22T03:12:37.685Z,54.33
2022-10-22T03:17:42.077Z,54.63
2022-10-22T03:22:44.935Z,54.67
2022-10-22T03:27:47.566Z,54.96
2022-10-22T03:32:51.567Z,54.97
2022-10-22T03:37:54.228Z,55.00
2022-10-22T03:42:56.928Z,55.12
2022-10-22T03:48:00.935Z,55.30
2022-10-22T03:53:03.628Z,55.46
2022-10-22T03:58:06.404Z,55.64
2022-10-22T04:03:10.365Z,55.54
2022-10-22T04:08:13.191Z,55.64
2022-10-22T04:13:15.881Z,55.67
2022-10-22T04:18:20.300Z,55.79
2022-10-22T04:23:23.601Z,55.90
2022-10-22T04:28:26.251Z,55.94
2022-10-22T04:33:30.304Z,55.82
2022-10-22T04:38:33.071Z,56.03
2022-10-22T04:43:35.733Z,55.86
2022-10-22T04:48:40.293Z,56.08
2022-10-22T04:53:43.000Z,56.29
2022-10-22T04:58:45.863Z,56.45
2022-10-22T05:03:50.251Z,56.44
2022-10-22T05:08:56.937Z,56.58
2022-10-22T05:14:00.020Z,56.75
2022-10-22T05:19:04.034Z,56.83
2022-10-22T05:24:07.640Z,56.98
2022-10-22T05:29:10.310Z,56.84
2022-10-22T05:34:14.283Z,56.97
2022-10-22T05:39:16.974Z,57.15
2022-10-22T05:44:19.645Z,57.39
2022-10-22T05:49:23.775Z,57.29
2022-10-22T05:54:26.458Z,57.30
2022-10-22T05:59:29.250Z,57.41
2022-10-22T06:04:33.206Z,57.42
2022-10-22T06:14:40.236Z,57.72
2022-10-22T06:19:44.397Z,57.79
2022-10-22T06:24:47.031Z,57.93
2022-10-22T06:29:49.747Z,58.04
2022-10-22T06:34:53.830Z,57.87
2022-10-22T06:39:56.500Z,58.02
2022-10-22T06:44:59.167Z,58.05
2022-10-22T06:50:03.358Z,58.13
2022-10-22T06:55:06.711Z,58.17
2022-10-22T07:00:10.675Z,58.21
2022-10-22T07:05:15.198Z,57.96
2022-10-22T07:10:18.096Z,58.00
2022-10-22T07:15:20.767Z,57.45
2022-10-22T07:20:24.845Z,57.11
2022-10-22T07:25:27.559Z,57.72
2022-10-22T07:30:30.442Z,57.63
2022-10-22T07:35:34.695Z,57.49
2022-10-22T07:40:37.433Z,56.58
2022-10-22T07:45:41.746Z,56.88
2022-10-22T07:50:45.826Z,57.05
2022-10-22T07:55:49.653Z,58.07
2022-10-22T08:00:52.407Z,57.59
2022-10-22T08:05:56.488Z,57.57
2022-10-22T08:10:59.924Z,57.50
2022-10-22T08:16:02.784Z,57.62
2022-10-22T08:21:07.455Z,57.53
2022-10-22T08:26:10.387Z,57.50
2022-10-22T08:31:13.031Z,57.61
2022-10-22T08:36:17.070Z,57.69
2022-10-22T08:41:20.530Z,57.53
2022-10-22T08:46:29.831Z,57.49
2022-10-22T08:51:35.260Z,57.58
2022-10-22T08:56:37.889Z,57.69
2022-10-22T09:01:41.211Z,57.48
2022-10-22T09:06:45.770Z,58.22
2022-10-22T09:11:50.987Z,57.59
2022-10-22T09:17:04.813Z,57.60
2022-10-22T09:22:14.780Z,57.63
2022-10-22T09:27:18.642Z,57.10
2022-10-22T09:32:21.474Z,57.03
2022-10-22T09:37:27.110Z,57.04
2022-10-22T09:42:29.747Z,56.98
2022-10-22T09:47:43.648Z,57.00
2022-10-22T09:52:59.720Z,56.97
2022-10-22T09:58:02.439Z,56.92
2022-10-22T10:03:05.177Z,56.66
2022-10-22T10:08:13.788Z,56.68
2022-10-22T10:13:25.964Z,56.80
2022-10-22T10:18:35.261Z,56.66
2022-10-22T10:23:42.750Z,56.49
2022-10-22T10:29:00.428Z,56.17
2022-10-22T10:34:07.293Z,56.25
2022-10-22T10:39:12.405Z,56.47
2022-10-22T10:44:38.578Z,56.21
2022-10-22T10:49:41.291Z,56.78
2022-10-22T10:54:47.870Z,58.01
2022-10-22T10:59:57.972Z,58.22
2022-10-22T11:05:08.744Z,57.23
2022-10-22T11:10:27.135Z,56.72
2022-10-22T11:15:32.179Z,56.33
2022-10-22T11:20:42.063Z,54.11
2022-10-22T11:25:47.018Z,52.71
2022-10-22T11:30:50.761Z,52.61
2022-10-22T11:35:53.433Z,52.89
2022-10-22T11:40:58.289Z,53.01
2022-10-22T11:46:10.655Z,53.23
2022-10-22T11:51:33.040Z,53.56
2022-10-22T11:56:39.451Z,53.42
2022-10-22T12:01:42.789Z,53.62
2022-10-22T12:06:57.042Z,53.42
2022-10-22T12:12:06.220Z,53.40
2022-10-22T12:17:10.728Z,53.27
2022-10-22T12:22:15.748Z,53.24
2022-10-22T12:27:22.679Z,53.12
2022-10-22T12:32:33.881Z,52.66
2022-10-22T12:37:37.115Z,52.91
2022-10-22T12:42:41.159Z,52.76
2022-10-22T12:47:47.025Z,52.80
2022-10-22T12:52:49.889Z,52.91
2022-10-22T12:57:53.987Z,52.64
2022-10-22T13:02:57.937Z,52.67
2022-10-22T13:08:03.947Z,52.43
2022-10-22T13:13:08.248Z,52.29
2022-10-22T13:18:18.908Z,52.00
2022-10-22T13:23:22.488Z,51.88
2022-10-22T13:28:26.932Z,51.24
2022-10-22T13:33:31.085Z,51.22
2022-10-22T13:38:33.979Z,51.65
2022-10-22T13:43:37.987Z,51.61
2022-10-22T13:48:40.707Z,52.27
2022-10-22T13:53:43.365Z,52.31
2022-10-22T13:58:47.751Z,52.36
2022-10-22T14:03:50.836Z,52.54
2022-10-22T14:08:56.373Z,52.35
2022-10-22T14:14:00.416Z,52.16
2022-10-22T14:19:03.503Z,52.28
2022-10-22T14:24:08.443Z,52.42
2022-10-22T14:29:15.010Z,52.43
2022-10-22T14:34:17.711Z,52.53
2022-10-22T14:39:21.532Z,52.29
2022-10-22T14:44:25.611Z,52.39
2022-10-22T14:49:28.643Z,52.35
2022-10-22T14:54:31.359Z,52.36
2022-10-22T14:59:35.669Z,52.25
2022-10-22T15:04:38.416Z,52.46
2022-10-22T15:09:41.856Z,52.55
2022-10-22T15:14:45.861Z,52.31
2022-10-22T15:19:48.619Z,52.14
2022-10-22T15:24:53.507Z,52.17
2022-10-22T15:29:58.898Z,52.06
2022-10-22T15:35:02.182Z,51.86
2022-10-22T15:40:07.265Z,52.05
2022-10-22T15:45:11.885Z,51.99
2022-10-22T15:50:14.698Z,52.03
2022-10-22T15:55:17.543Z,52.19
2022-10-22T16:00:22.037Z,52.23
2022-10-22T16:05:24.904Z,52.12
2022-10-22T16:10:28.072Z,52.12
2022-10-22T16:15:32.239Z,51.74
2022-10-22T16:20:39.190Z,51.74
2022-10-22T16:25:41.952Z,51.80
2022-10-22T16:30:46.249Z,51.69
2022-10-22T16:35:49.473Z,52.09
2022-10-22T16:40:52.139Z,51.82
2022-10-22T16:45:56.325Z,51.48
2022-10-22T16:50:59.319Z,51.25
2022-10-22T16:56:02.020Z,51.03
2022-10-22T17:01:08.681Z,50.97
2022-10-22T17:06:11.875Z,50.98
2022-10-22T17:11:17.121Z,51.09
2022-10-22T17:16:22.007Z,51.33
2022-10-22T17:21:24.799Z,51.37
2022-10-22T17:26:27.655Z,51.06
2022-10-22T17:31:32.841Z,51.07
2022-10-22T17:36:36.193Z,51.26
2022-10-22T17:41:39.039Z,51.12
2022-10-22T17:46:43.775Z,51.05
2022-10-22T17:51:46.678Z,51.21
2022-10-22T17:56:49.379Z,51.31
2022-10-22T18:01:56.897Z,51.32
2022-10-22T18:07:02.293Z,51.23
2022-10-22T18:12:05.281Z,51.05
2022-10-22T18:17:09.394Z,50.92
2022-10-22T18:22:12.199Z,51.72
2022-10-22T18:27:14.935Z,51.86
2022-10-22T18:32:18.899Z,51.70
2022-10-22T18:37:21.604Z,51.72
2022-10-22T18:42:26.390Z,51.89
2022-10-22T18:47:33.107Z,51.78
2022-10-22T18:52:35.831Z,51.94
2022-10-22T18:57:38.954Z,51.89
2022-10-22T19:02:43.609Z,51.78
2022-10-22T19:07:46.649Z,51.95
2022-10-22T19:12:49.391Z,51.89
2022-10-22T19:17:53.669Z,51.98
2022-10-22T19:22:57.327Z,51.93
2022-10-22T19:27:59.974Z,51.98
2022-10-22T19:33:04.062Z,51.88
2022-10-22T19:38:06.731Z,51.92
2022-10-22T19:43:09.383Z,51.87
2022-10-22T19:48:13.417Z,51.92
2022-10-22T19:53:16.201Z,52.00
2022-10-22T19:58:18.865Z,52.10
2022-10-22T20:03:23.128Z,51.75
2022-10-22T20:08:25.803Z,51.96
2022-10-22T20:13:28.960Z,51.92
2022-10-22T20:18:34.012Z,52.03
2022-10-22T20:23:36.962Z,51.86
2022-10-22T20:28:39.706Z,52.15
2022-10-22T20:33:43.713Z,52.40
2022-10-22T20:38:48.012Z,52.56
2022-10-22T20:43:51.627Z,52.64
2022-10-22T20:48:57.818Z,52.33
2022-10-22T20:54:00.704Z,52.39
2022-10-22T20:59:07.974Z,52.49
2022-10-22T21:04:11.975Z,52.66
2022-10-22T21:09:15.245Z,52.58
2022-10-22T21:14:22.127Z,52.80
2022-10-22T21:19:26.262Z,52.88
2022-10-22T21:24:28.915Z,52.92
2022-10-22T21:29:31.608Z,52.95
2022-10-22T21:34:38.871Z,53.30
2022-10-22T21:39:42.270Z,52.95
2022-10-22T21:44:45.057Z,53.16
2022-10-22T21:49:49.137Z,53.19
2022-10-22T21:54:51.814Z,53.17
2022-10-22T21:59:54.429Z,53.31
2022-10-22T22:04:58.398Z,53.28
2022-10-22T22:10:01.037Z,53.37
2022-10-22T22:15:03.768Z,53.58
2022-10-22T22:20:09.997Z,53.56
2022-10-22T22:25:12.685Z,53.73
2022-10-22T22:30:15.457Z,53.70
2022-10-22T22:35:19.553Z,53.84
2022-10-22T22:40:22.218Z,53.94
2022-10-22T22:45:24.913Z,54.03
2022-10-22T22:50:28.922Z,54.09
2022-10-22T22:55:31.923Z,54.07
2022-10-22T23:00:34.941Z,54.07
2022-10-22T23:05:39.153Z,54.09
2022-10-22T23:10:41.821Z,54.28
2022-10-22T23:15:44.449Z,54.08
2022-10-22T23:20:48.536Z,54.09
2022-10-22T23:25:51.258Z,54.13
2022-10-22T23:30:53.893Z,54.18
2022-10-22T23:35:57.930Z,54.31
2022-10-22T23:41:00.676Z,54.26
2022-10-22T23:46:03.368Z,54.43
2022-10-22T23:51:08.004Z,54.37
2022-10-22T23:56:11.736Z,54.45
